Fairhaven, Washington
Current Conditions -  °F | °C
As of 4:53 PM on Sunday 23 Nov 2014 (Local Time) from KBLI Reporting Station
Clear Clear  
Wind Chill:   Ceiling: Unl
Heat Index:   Visibility: 10mi
Dew Point:   Wind: 5mph
Humidity: 64%   Direction: NA
Pressure: 30.17"   Gusts: NA
Location:  48.7531°N, 122.502°W
Report Text: KBLI 240053Z VRB04KT 10SM CLR 09/03 A3017 RMK AO2 SLP224 T00940028
Loading
Personal Weather Stations






























Interactive Weather Map New forecast layout! Learn more

10-Day Weather Forecast

Advertisements
Track Severe Weather on mobile